Turnov, Czech Republic
Current Conditions -  °F | °C
As of 8:00 PM on Monday 20 Oct 2014 (Local Time) from LKKB Reporting Station
Broken Clouds Broken Clouds  
Wind Chill: 57°   Ceiling: 23000
Heat Index: 57°   Visibility: 6mi
Dew Point: 54°   Wind: 8mph
Humidity: 88%   Direction: 260°W
Pressure: 29.94"   Gusts: NA
Location:  50.6°N, 15.14°E
Report Text: LKKB 201800Z 26007KT 9999 FEW049 SCT170 BKN230 14/12 Q1014 NOSIG
Loading
Personal Weather Stations






























Interactive Weather Map
Tropical Storm Tracking
New forecast layout! Learn more

10-Day Weather Forecast

Advertisements
Track Severe Weather on mobile